Time;durP1;ratioP1;P1;durP2;ratioP2;P2;SDS_P1;SDS_P2;PMS_P1;PMS_P2;Temp;Humidity;BMP_temperature;BMP_pressure;BME280_temperature;BME280_humidity;BME280_pressure;Samples;Min_cycle;Max_cycle;Signal;HPM_P1;HPM_P2
2023/05/31 00:00:05;;;;;;;12.20;6.18;;;512.10;2380.80;;;;;;5073628;28;20099;-71
2023/05/31 00:02:31;;;;;;;12.27;5.70;;;512.10;2380.80;;;;;;5073592;28;20473;-71
2023/05/31 00:04:57;;;;;;;7.72;4.40;;;512.00;2380.80;;;;;;5073447;28;20048;-71
2023/05/31 00:07:22;;;;;;;12.25;5.53;;;512.10;2380.80;;;;;;5073520;28;20473;-75
2023/05/31 00:09:48;;;;;;;8.38;5.28;;;512.10;2380.80;;;;;;5073579;28;20060;-73
2023/05/31 00:12:14;;;;;;;9.15;4.97;;;512.10;2380.80;;;;;;5073385;28;20090;-71
2023/05/31 00:14:40;;;;;;;15.05;6.38;;;512.10;2380.80;;;;;;5073313;28;20070;-73
2023/05/31 00:17:05;;;;;;;11.63;5.88;;;512.10;2380.80;;;;;;5073293;28;20058;-71
2023/05/31 00:19:31;;;;;;;9.30;5.43;;;512.10;2380.80;;;;;;5055276;28;20029;-72
2023/05/31 00:21:57;;;;;;;17.33;5.93;;;512.10;2380.80;;;;;;5073116;28;20123;-71
2023/05/31 00:24:22;;;;;;;13.75;6.20;;;512.10;2380.80;;;;;;5073046;28;20031;-75
2023/05/31 00:26:48;;;;;;;10.25;6.38;;;512.00;2380.80;;;;;;5073149;28;20577;-71
2023/05/31 00:29:14;;;;;;;9.77;6.68;;;512.00;2380.80;;;;;;5073046;28;20032;-76
2023/05/31 00:31:43;;;;;;;11.95;6.90;;;512.00;2380.80;;;;;;5054272;28;20076;-73
2023/05/31 00:34:10;;;;;;;9.95;6.22;;;512.00;2380.80;;;;;;5072960;28;20016;-76
2023/05/31 00:36:36;;;;;;;9.35;6.50;;;512.00;2380.80;;;;;;5073281;28;20558;-76
2023/05/31 00:39:02;;;;;;;9.93;6.60;;;512.00;2380.80;;;;;;5072996;28;20056;-73
2023/05/31 00:41:28;;;;;;;12.90;6.85;;;512.00;2380.80;;;;;;5073006;28;20532;-71
2023/05/31 00:43:54;;;;;;;11.40;7.68;;;512.00;2380.80;;;;;;5073185;28;20104;-71
2023/05/31 00:46:30;;;;;;;14.27;7.85;;;487.30;2380.80;;;;;;5072990;28;20032;-72
2023/05/31 00:48:56;;;;;;;10.05;6.95;;;487.30;2380.80;;;;;;5073102;28;20021;-76
2023/05/31 00:51:23;;;;;;;9.55;6.88;;;487.30;2380.80;;;;;;5055246;28;20048;-72
2023/05/31 00:53:50;;;;;;;9.98;6.68;;;487.20;2380.80;;;;;;5072782;28;20020;-71
2023/05/31 00:56:18;;;;;;;12.75;6.90;;;487.30;2048.00;;;;;;5073058;28;20027;-72
2023/05/31 00:58:45;;;;;;;11.98;7.50;;;487.20;2380.80;;;;;;5073154;28;20024;-80
2023/05/31 01:01:13;;;;;;;12.43;8.40;;;487.20;2022.40;;;;;;5072921;28;20508;-72
2023/05/31 01:03:40;;;;;;;12.45;7.88;;;487.10;2380.80;;;;;;5072864;28;20029;-81
2023/05/31 01:06:07;;;;;;;10.68;7.55;;;487.10;2099.20;;;;;;5072870;28;20031;-72
2023/05/31 01:08:33;;;;;;;14.50;7.53;;;487.10;2304.00;;;;;;5072755;28;20494;-80
2023/05/31 01:11:09;;;;;;;13.25;8.52;;;487.10;2380.80;;;;;;5073013;28;20021;-71
2023/05/31 01:13:43;;;;;;;11.40;8.30;;;487.10;2380.80;;;;;;5072804;28;20020;-72
2023/05/31 01:16:15;;;;;;;9.93;7.45;;;487.10;2252.80;;;;;;5072702;28;20107;-72
2023/05/31 01:18:49;;;;;;;13.95;8.05;;;487.10;2380.80;;;;;;5054771;28;20116;-72
2023/05/31 01:21:19;;;;;;;11.85;8.63;;;487.10;2329.60;;;;;;5072635;28;20045;-80
2023/05/31 01:24:29;;;;;;;14.95;8.27;;;487.10;2355.20;;;;;;5072551;28;20044;-73
2023/05/31 01:26:59;;;;;;;11.35;8.23;;;487.10;2304.00;;;;;;5055244;28;20029;-71
2023/05/31 01:29:27;;;;;;;11.48;8.07;;;487.10;2304.00;;;;;;5072502;28;20047;-71
2023/05/31 01:31:58;;;;;;;11.93;8.07;;;487.10;2380.80;;;;;;5072411;28;20049;-78
2023/05/31 01:34:24;;;;;;;13.68;7.88;;;487.10;2380.80;;;;;;5072747;28;20078;-77
2023/05/31 01:36:50;;;;;;;13.55;8.50;;;487.00;2278.40;;;;;;5072557;28;20017;-71
2023/05/31 01:39:16;;;;;;;16.73;8.10;;;487.00;2304.00;;;;;;5072554;28;20138;-71
2023/05/31 01:41:43;;;;;;;14.57;9.60;;;487.00;2099.20;;;;;;5072509;28;20437;-72
2023/05/31 01:44:10;;;;;;;15.95;8.07;;;486.90;2380.80;;;;;;5072508;28;20099;-72
2023/05/31 01:46:37;;;;;;;11.82;8.85;;;487.00;2380.80;;;;;;5076286;28;20034;-74
2023/05/31 01:49:03;;;;;;;18.05;9.18;;;487.00;2380.80;;;;;;5076116;28;20107;-72
2023/05/31 01:51:33;;;;;;;17.83;8.93;;;487.00;2150.40;;;;;;5075990;28;20024;-79
2023/05/31 01:53:59;;;;;;;13.80;9.57;;;487.10;2150.40;;;;;;5075925;28;20121;-80
2023/05/31 01:56:28;;;;;;;13.27;8.90;;;487.10;2201.60;;;;;;5057945;28;20025;-71
2023/05/31 01:58:55;;;;;;;13.20;8.32;;;487.00;2176.00;;;;;;5075797;28;20028;-79
2023/05/31 02:01:22;;;;;;;14.63;9.05;;;487.00;2201.60;;;;;;5076356;28;20494;-71
2023/05/31 02:03:51;;;;;;;14.38;9.48;;;487.00;2380.80;;;;;;5079257;28;20033;-79
2023/05/31 02:06:17;;;;;;;18.42;8.90;;;487.00;2022.40;;;;;;5079625;28;20104;-79
2023/05/31 02:08:43;;;;;;;14.07;9.10;;;487.00;2380.80;;;;;;5075934;28;20065;-74
2023/05/31 02:11:09;;;;;;;18.60;8.82;;;487.10;2380.80;;;;;;5057386;28;20482;-81
2023/05/31 02:13:35;;;;;;;14.48;8.57;;;487.10;2380.80;;;;;;5057560;28;20470;-76
2023/05/31 02:16:01;;;;;;;14.27;9.75;;;487.00;2380.80;;;;;;5075771;28;20035;-72
2023/05/31 02:18:27;;;;;;;14.45;8.55;;;487.00;2380.80;;;;;;5075553;28;20040;-74
2023/05/31 02:20:53;;;;;;;17.02;9.07;;;486.90;2380.80;;;;;;5075388;28;20033;-72
2023/05/31 02:23:20;;;;;;;15.95;8.85;;;487.00;2380.80;;;;;;5057647;28;20028;-72
2023/05/31 02:25:47;;;;;;;13.93;8.48;;;487.00;2380.80;;;;;;5075334;28;20098;-71
2023/05/31 02:28:13;;;;;;;14.25;8.70;;;487.00;2380.80;;;;;;5075353;28;20398;-78
2023/05/31 02:30:40;;;;;;;13.93;8.57;;;487.00;2380.80;;;;;;5056660;28;20033;-80
2023/05/31 02:33:07;;;;;;;16.52;9.43;;;487.00;2380.80;;;;;;5075369;28;20032;-71
2023/05/31 02:35:33;;;;;;;13.30;9.38;;;487.00;2380.80;;;;;;5075121;28;20020;-75
2023/05/31 02:37:59;;;;;;;20.38;9.82;;;487.00;2380.80;;;;;;5075262;28;20032;-73
2023/05/31 02:40:24;;;;;;;18.10;9.32;;;486.90;2380.80;;;;;;5075017;28;20074;-79
2023/05/31 02:42:50;;;;;;;24.83;10.77;;;486.90;2380.80;;;;;;5074884;28;20040;-72
2023/05/31 02:45:16;;;;;;;20.25;10.82;;;486.90;2380.80;;;;;;5074917;28;20390;-72
2023/05/31 02:47:42;;;;;;;17.70;9.95;;;486.90;2380.80;;;;;;5056980;28;20482;-72
2023/05/31 02:50:09;;;;;;;18.92;10.32;;;486.90;2380.80;;;;;;5075005;28;20029;-72
2023/05/31 02:52:36;;;;;;;15.45;9.85;;;486.90;2380.80;;;;;;5074831;28;20020;-72
2023/05/31 02:55:02;;;;;;;20.83;10.75;;;486.90;2380.80;;;;;;5074603;28;20375;-80
2023/05/31 02:57:28;;;;;;;14.15;9.70;;;486.90;2380.80;;;;;;5074776;28;20107;-72
2023/05/31 03:00:10;;;;;;;16.70;10.70;;;486.90;2380.80;;;;;;5074477;28;20114;-72
2023/05/31 03:02:38;;;;;;;17.10;10.90;;;487.00;2380.80;;;;;;5074201;28;20109;-72
2023/05/31 03:05:04;;;;;;;23.95;9.35;;;486.90;2022.40;;;;;;5074081;28;20012;-72
2023/05/31 03:07:30;;;;;;;17.67;10.52;;;487.00;2380.80;;;;;;5073807;28;20055;-72
2023/05/31 03:09:56;;;;;;;12.73;9.70;;;487.00;2380.80;;;;;;5074023;28;20051;-78
2023/05/31 03:12:21;;;;;;;16.67;10.93;;;486.90;2380.80;;;;;;5073827;28;20526;-79
2023/05/31 03:14:47;;;;;;;14.57;9.50;;;486.90;2380.80;;;;;;5055874;28;20028;-79
2023/05/31 03:17:13;;;;;;;14.45;10.20;;;486.80;2048.00;;;;;;5073833;28;20052;-77
2023/05/31 03:19:38;;;;;;;20.35;10.60;;;486.80;2073.60;;;;;;5073730;28;20390;-77
2023/05/31 03:22:04;;;;;;;18.92;9.98;;;486.80;1996.80;;;;;;5073579;28;20040;-72
2023/05/31 03:24:30;;;;;;;15.85;10.35;;;486.80;2150.40;;;;;;5073459;28;20497;-72
2023/05/31 03:26:56;;;;;;;21.27;11.57;;;486.80;2073.60;;;;;;5073818;28;20054;-75
2023/05/31 03:29:22;;;;;;;19.52;10.55;;;486.80;2022.40;;;;;;5073277;28;20016;-74
2023/05/31 03:31:47;;;;;;;22.63;10.05;;;486.80;2380.80;;;;;;5073432;28;20132;-73
2023/05/31 03:34:13;;;;;;;17.05;10.43;;;486.80;2355.20;;;;;;5073508;28;20055;-72
2023/05/31 03:36:39;;;;;;;16.88;10.18;;;486.80;2380.80;;;;;;5073517;28;20029;-81
2023/05/31 03:39:05;;;;;;;19.55;10.55;;;486.80;2380.80;;;;;;5073469;28;20470;-74
2023/05/31 03:41:31;;;;;;;17.73;10.52;;;486.70;2380.80;;;;;;5073167;28;20063;-73
2023/05/31 03:43:57;;;;;;;16.92;10.98;;;486.70;2380.80;;;;;;5073019;28;20386;-75
2023/05/31 03:46:23;;;;;;;17.90;10.18;;;486.80;2380.80;;;;;;5073647;28;20029;-79
2023/05/31 03:48:49;;;;;;;18.13;10.80;;;486.80;2380.80;;;;;;5055568;28;20474;-71
2023/05/31 03:51:15;;;;;;;16.52;9.45;;;486.80;2380.80;;;;;;5073300;28;20020;-73
2023/05/31 03:53:41;;;;;;;19.10;10.35;;;486.80;2380.80;;;;;;5055321;28;20029;-72
2023/05/31 03:56:07;;;;;;;16.45;10.02;;;486.80;2380.80;;;;;;5073045;28;20020;-72
2023/05/31 03:58:32;;;;;;;20.85;10.07;;;486.80;2380.80;;;;;;5073028;28;20056;-72
2023/05/31 04:00:58;;;;;;;15.32;9.32;;;486.80;2380.80;;;;;;5072907;28;20040;-72
2023/05/31 04:03:24;;;;;;;15.60;9.43;;;486.70;2380.80;;;;;;5073121;28;20024;-77
2023/05/31 04:05:49;;;;;;;20.42;9.82;;;486.80;2380.80;;;;;;5072945;28;20027;-73
2023/05/31 04:08:15;;;;;;;17.05;8.40;;;486.80;2380.80;;;;;;5072478;28;20531;-72
2023/05/31 04:10:41;;;;;;;12.30;8.38;;;486.80;2380.80;;;;;;5072692;28;20016;-73
2023/05/31 04:13:07;;;;;;;15.93;8.25;;;486.80;2380.80;;;;;;5072817;28;20019;-80
2023/05/31 04:15:32;;;;;;;17.60;9.07;;;486.80;2252.80;;;;;;5072670;28;20039;-72
2023/05/31 04:17:58;;;;;;;12.10;7.85;;;486.80;2201.60;;;;;;5072978;28;20021;-72
2023/05/31 04:20:24;;;;;;;11.15;7.75;;;486.80;2073.60;;;;;;5072802;28;20032;-73
2023/05/31 04:22:50;;;;;;;12.20;8.43;;;486.80;2124.80;;;;;;5072861;28;20040;-81
2023/05/31 04:25:17;;;;;;;14.10;7.80;;;486.80;2252.80;;;;;;5072405;28;20025;-71
2023/05/31 04:27:43;;;;;;;13.35;9.00;;;486.80;2380.80;;;;;;5072701;28;20017;-72
2023/05/31 04:30:09;;;;;;;16.38;9.05;;;486.80;2380.80;;;;;;5072320;28;20034;-72
2023/05/31 04:32:34;;;;;;;14.85;8.10;;;486.80;2380.80;;;;;;5072615;28;20486;-72
2023/05/31 04:35:03;;;;;;;16.73;9.05;;;486.80;2380.80;;;;;;5072616;28;20093;-72
2023/05/31 04:37:29;;;;;;;20.40;9.18;;;486.80;2380.80;;;;;;5072593;28;20023;-72
2023/05/31 04:39:56;;;;;;;17.65;8.55;;;486.90;2380.80;;;;;;5072634;28;20032;-73
2023/05/31 04:42:24;;;;;;;15.50;9.27;;;486.90;2380.80;;;;;;5072399;28;20032;-72
2023/05/31 04:45:01;;;;;;;13.13;8.15;;;486.90;2380.80;;;;;;5072444;28;20013;-82
2023/05/31 04:47:32;;;;;;;17.08;9.48;;;487.00;2073.60;;;;;;5072415;28;20048;-78
2023/05/31 04:49:59;;;;;;;16.65;8.73;;;487.00;2304.00;;;;;;5072437;28;20106;-76
2023/05/31 04:52:28;;;;;;;15.57;8.25;;;487.10;2252.80;;;;;;5072507;28;20026;-72
2023/05/31 04:54:55;;;;;;;16.67;9.93;;;487.10;2201.60;;;;;;5054923;28;20024;-72
2023/05/31 04:57:21;;;;;;;15.93;8.43;;;487.10;2150.40;;;;;;5072330;28;20548;-72
2023/05/31 04:59:47;;;;;;;13.65;8.75;;;487.20;2150.40;;;;;;5072450;28;20037;-80
2023/05/31 05:02:13;;;;;;;17.75;10.02;;;487.30;2380.80;;;;;;5072192;28;20032;-72
2023/05/31 05:04:38;;;;;;;16.95;9.25;;;487.30;2380.80;;;;;;5068983;28;20021;-72
2023/05/31 05:07:05;;;;;;;14.23;9.55;;;487.30;2380.80;;;;;;5070986;28;20500;-73
2023/05/31 05:09:30;;;;;;;15.20;8.50;;;512.00;2380.80;;;;;;5067238;28;20025;-73
2023/05/31 05:11:56;;;;;;;12.48;8.82;;;512.00;2380.80;;;;;;5072010;28;20012;-73
2023/05/31 05:14:22;;;;;;;15.13;9.23;;;512.10;2380.80;;;;;;5072017;28;20374;-73
2023/05/31 05:16:48;;;;;;;15.98;9.60;;;512.10;2380.80;;;;;;5071386;28;20463;-72
2023/05/31 05:19:14;;;;;;;19.30;8.85;;;512.10;2380.80;;;;;;5072204;28;20028;-73
2023/05/31 05:21:39;;;;;;;18.48;9.25;;;512.10;2380.80;;;;;;5076236;28;20028;-71
2023/05/31 05:24:06;;;;;;;15.05;8.95;;;512.20;2380.80;;;;;;5075598;28;20096;-72
2023/05/31 05:26:32;;;;;;;17.10;9.45;;;512.30;2380.80;;;;;;5075500;28;20021;-72
2023/05/31 05:28:58;;;;;;;18.25;9.57;;;512.30;2380.80;;;;;;5069409;28;20462;-73
2023/05/31 05:31:23;;;;;;;12.50;9.25;;;512.20;2380.80;;;;;;5075051;28;20056;-73
2023/05/31 05:33:50;;;;;;;17.38;9.95;;;512.20;2380.80;;;;;;5077046;28;20028;-72
2023/05/31 05:36:16;;;;;;;17.85;9.05;;;512.20;2380.80;;;;;;5058890;28;20029;-73
2023/05/31 05:38:42;;;;;;;20.20;10.35;;;512.20;2380.80;;;;;;5070666;28;20024;-72
2023/05/31 05:41:12;;;;;;;20.25;9.82;;;512.20;2380.80;;;;;;5075089;28;20050;-72
2023/05/31 05:43:40;;;;;;;16.45;9.18;;;512.30;2380.80;;;;;;5074959;28;20028;-73
2023/05/31 05:46:06;;;;;;;14.73;9.50;;;512.40;2380.80;;;;;;5070726;28;20025;-74
2023/05/31 05:48:31;;;;;;;18.33;9.43;;;512.50;2380.80;;;;;;5074161;28;20032;-73
2023/05/31 05:50:58;;;;;;;15.55;9.95;;;512.50;2380.80;;;;;;5075208;28;20432;-77
2023/05/31 05:53:23;;;;;;;15.57;9.75;;;512.60;2380.80;;;;;;5069527;28;20025;-73
2023/05/31 05:55:51;;;;;;;19.40;10.25;;;512.60;2380.80;;;;;;5047147;28;20082;-72
2023/05/31 05:58:18;;;;;;;15.90;9.82;;;512.70;2380.80;;;;;;5075309;28;20031;-72
2023/05/31 06:00:45;;;;;;;14.93;10.10;;;512.80;2380.80;;;;;;5074851;28;20028;-74
2023/05/31 06:03:14;;;;;;;20.48;11.30;;;512.90;2380.80;;;;;;5075568;28;20037;-75
2023/05/31 06:05:41;;;;;;;18.88;10.25;;;512.90;2380.80;;;;;;5068720;28;20031;-72
2023/05/31 06:08:11;;;;;;;14.30;11.00;;;537.60;2406.40;;;;;;5074669;28;20020;-72
2023/05/31 06:10:37;;;;;;;16.75;10.18;;;537.70;2406.40;;;;;;5042589;28;20029;-72
2023/05/31 06:13:04;;;;;;;15.48;9.65;;;537.70;2406.40;;;;;;5070988;28;20097;-72
2023/05/31 06:15:30;;;;;;;17.83;10.98;;;537.90;2406.40;;;;;;5074738;28;20047;-74
2023/05/31 06:17:56;;;;;;;15.07;10.55;;;537.90;2406.40;;;;;;5075170;28;20529;-72
2023/05/31 06:20:22;;;;;;;14.55;10.60;;;537.90;2406.40;;;;;;5049757;28;20037;-72
2023/05/31 06:22:49;;;;;;;22.20;11.88;;;537.90;2406.40;;;;;;5064598;28;20071;-73
2023/05/31 06:25:17;;;;;;;21.25;10.95;;;537.90;2406.40;;;;;;5074701;28;20033;-72
2023/05/31 06:27:45;;;;;;;19.98;10.75;;;538.00;2406.40;;;;;;5073980;28;20489;-73
2023/05/31 06:30:12;;;;;;;21.23;11.60;;;538.00;2406.40;;;;;;5049479;28;20127;-72
2023/05/31 06:32:37;;;;;;;18.08;11.68;;;538.00;2406.40;;;;;;5074254;28;20122;-73
2023/05/31 06:35:04;;;;;;;15.68;10.88;;;538.10;2406.40;;;;;;5047757;28;20470;-79
2023/05/31 06:37:31;;;;;;;20.48;11.35;;;538.20;2406.40;;;;;;5074459;28;20029;-73
2023/05/31 06:39:57;;;;;;;19.73;11.45;;;538.30;2406.40;;;;;;5072533;28;20082;-73
2023/05/31 06:42:23;;;;;;;15.48;11.20;;;538.30;2406.40;;;;;;5074033;28;20029;-72
2023/05/31 06:44:50;;;;;;;18.08;11.35;;;538.30;2406.40;;;;;;5067874;28;20024;-75
2023/05/31 06:47:16;;;;;;;19.77;12.30;;;538.40;2406.40;;;;;;5074241;28;20046;-73
2023/05/31 06:49:42;;;;;;;22.08;11.25;;;538.30;2406.40;;;;;;5044423;28;20028;-70
2023/05/31 06:52:09;;;;;;;16.27;10.82;;;538.50;2406.40;;;;;;5072365;28;20490;-80
2023/05/31 06:54:36;;;;;;;17.75;11.77;;;538.50;2406.40;;;;;;5046117;28;20444;-71
2023/05/31 06:57:03;;;;;;;19.58;11.48;;;538.50;2406.40;;;;;;5071383;28;20053;-72
2023/05/31 06:59:28;;;;;;;16.17;11.68;;;538.50;2406.40;;;;;;5069498;28;20386;-70
2023/05/31 07:01:54;;;;;;;18.10;11.18;;;538.50;2406.40;;;;;;5068042;28;20050;-71
2023/05/31 07:04:20;;;;;;;17.70;11.95;;;538.50;2406.40;;;;;;5073695;28;20021;-72
2023/05/31 07:06:46;;;;;;;17.73;10.90;;;563.20;2432.00;;;;;;5069210;28;20021;-71
2023/05/31 07:09:12;;;;;;;20.08;11.93;;;563.20;2432.00;;;;;;5069386;28;20032;-72
2023/05/31 07:11:41;;;;;;;21.90;12.32;;;563.60;2432.00;;;;;;5073996;28;20378;-75
2023/05/31 07:14:07;;;;;;;15.52;10.75;;;563.20;2432.00;;;;;;5068897;28;20469;-73
2023/05/31 07:16:33;;;;;;;18.85;10.65;;;563.30;2432.00;;;;;;5073575;28;20060;-71
2023/05/31 07:18:59;;;;;;;14.45;11.07;;;563.40;2432.00;;;;;;5073669;28;20063;-69
2023/05/31 07:21:25;;;;;;;19.45;11.68;;;563.40;2432.00;;;;;;5073347;28;20045;-71
2023/05/31 07:23:51;;;;;;;17.35;12.23;;;563.50;2432.00;;;;;;5073494;28;20025;-77
2023/05/31 07:26:17;;;;;;;16.17;11.18;;;563.60;2432.00;;;;;;5064689;28;20089;-71
2023/05/31 07:28:44;;;;;;;18.60;11.20;;;563.50;2432.00;;;;;;5070527;28;20024;-69
2023/05/31 07:31:10;;;;;;;13.52;10.82;;;563.50;2432.00;;;;;;5065817;28;20064;-70
2023/05/31 07:33:35;;;;;;;16.58;11.95;;;563.40;2432.00;;;;;;5071459;28;20441;-71
2023/05/31 07:36:01;;;;;;;18.20;12.32;;;563.40;2432.00;;;;;;5064771;28;20013;-72
2023/05/31 07:38:27;;;;;;;19.27;10.70;;;563.50;2432.00;;;;;;5050193;28;20063;-75
2023/05/31 07:40:53;;;;;;;14.88;11.10;;;563.50;2432.00;;;;;;5068811;28;20020;-72
2023/05/31 07:43:21;;;;;;;16.13;11.05;;;563.60;2432.00;;;;;;5057478;28;20035;-71
2023/05/31 07:45:48;;;;;;;18.02;11.20;;;563.70;2432.00;;;;;;5072799;28;20073;-73
2023/05/31 07:48:13;;;;;;;16.13;10.85;;;563.60;2432.00;;;;;;5046862;28;20052;-71
2023/05/31 07:50:39;;;;;;;16.83;12.60;;;563.70;2432.00;;;;;;5072764;28;20453;-72
2023/05/31 07:53:05;;;;;;;16.58;11.07;;;563.70;2432.00;;;;;;5059708;28;20482;-71
2023/05/31 07:55:30;;;;;;;14.68;9.95;;;563.80;2432.00;;;;;;5066081;28;20025;-74
2023/05/31 07:57:56;;;;;;;14.95;10.95;;;563.80;2432.00;;;;;;5072423;28;20362;-73
2023/05/31 08:00:23;;;;;;;19.35;11.70;;;563.80;2432.00;;;;;;5072640;28;20486;-72
2023/05/31 08:02:49;;;;;;;17.33;11.43;;;563.80;2432.00;;;;;;5072515;28;20090;-71
2023/05/31 08:05:15;;;;;;;15.52;10.85;;;563.80;2432.00;;;;;;5072604;28;20028;-71
2023/05/31 08:07:40;;;;;;;20.08;11.15;;;563.80;2432.00;;;;;;5072419;28;20033;-72
2023/05/31 08:10:06;;;;;;;13.88;10.85;;;563.80;2432.00;;;;;;5068755;28;20032;-71
2023/05/31 08:12:32;;;;;;;14.75;11.15;;;563.90;2432.00;;;;;;5072580;28;20157;-72
2023/05/31 08:14:58;;;;;;;17.95;11.90;;;563.90;2432.00;;;;;;5072398;28;20421;-73
2023/05/31 08:17:24;;;;;;;17.90;11.18;;;564.00;2432.00;;;;;;5072780;28;20032;-72
2023/05/31 08:19:50;;;;;;;16.83;11.27;;;563.90;2432.00;;;;;;5072152;28;20017;-71
2023/05/31 08:22:16;;;;;;;17.52;11.75;;;563.70;2432.00;;;;;;5051380;28;20044;-78
2023/05/31 08:24:41;;;;;;;15.60;11.38;;;563.70;2432.00;;;;;;5072627;28;20027;-73
2023/05/31 08:27:07;;;;;;;21.65;11.60;;;588.90;2432.00;;;;;;5072310;28;20467;-71
2023/05/31 08:29:33;;;;;;;19.00;10.98;;;563.80;2432.00;;;;;;5071888;28;20032;-71
2023/05/31 08:31:59;;;;;;;16.95;11.82;;;564.00;2432.00;;;;;;5072286;28;20425;-73
2023/05/31 08:34:24;;;;;;;18.15;11.90;;;588.80;2432.00;;;;;;5072589;28;20020;-72
2023/05/31 08:36:50;;;;;;;16.33;11.18;;;588.90;2432.00;;;;;;5063676;28;20020;-72
2023/05/31 08:39:16;;;;;;;19.98;11.38;;;589.30;2432.00;;;;;;5068421;28;20056;-70
2023/05/31 08:41:58;;;;;;;17.45;10.85;;;589.30;2432.00;;;;;;5046659;28;20055;-71
2023/05/31 08:44:24;;;;;;;19.33;10.73;;;589.40;2432.00;;;;;;5070380;28;20545;-72
2023/05/31 08:46:50;;;;;;;15.95;10.73;;;589.50;2432.00;;;;;;5068637;28;20024;-73
2023/05/31 08:49:18;;;;;;;15.10;9.43;;;589.70;2432.00;;;;;;5068833;28;20035;-70
2023/05/31 08:51:45;;;;;;;15.23;9.65;;;614.40;2432.00;;;;;;5048551;28;20090;-73
2023/05/31 08:54:12;;;;;;;16.20;10.65;;;589.70;2432.00;;;;;;5074549;28;20063;-75
2023/05/31 08:56:39;;;;;;;17.23;10.93;;;589.70;2432.00;;;;;;5076229;28;20031;-78
2023/05/31 08:59:09;;;;;;;21.70;10.40;;;589.70;2432.00;;;;;;5076653;28;20033;-72
2023/05/31 09:01:36;;;;;;;18.73;10.55;;;589.70;2432.00;;;;;;5058258;28;20043;-72
2023/05/31 09:04:05;;;;;;;19.65;11.00;;;614.40;2432.00;;;;;;5077641;28;20032;-72
2023/05/31 09:06:30;;;;;;;15.70;10.65;;;614.60;2432.00;;;;;;5073550;28;20027;-72
2023/05/31 09:08:56;;;;;;;19.17;10.95;;;614.50;2432.00;;;;;;5076907;28;20028;-71
2023/05/31 09:11:23;;;;;;;16.88;10.30;;;614.60;2432.00;;;;;;5076392;28;20025;-72
2023/05/31 09:13:48;;;;;;;17.75;9.80;;;614.70;2432.00;;;;;;5075672;28;20107;-72
2023/05/31 09:16:14;;;;;;;21.17;11.43;;;614.90;2432.00;;;;;;5075953;28;20102;-72
2023/05/31 09:18:40;;;;;;;17.98;11.05;;;614.90;2432.00;;;;;;5076207;28;20035;-71
2023/05/31 09:21:11;;;;;;;17.20;11.32;;;615.00;2432.00;;;;;;5076111;28;20021;-74
2023/05/31 09:23:37;;;;;;;13.05;10.02;;;614.90;2432.00;;;;;;5075674;28;20056;-73
2023/05/31 09:26:06;;;;;;;13.70;10.23;;;615.10;2432.00;;;;;;5075763;28;20024;-74
2023/05/31 09:28:32;;;;;;;15.02;10.13;;;615.00;2432.00;;;;;;5075520;28;20370;-72
2023/05/31 09:31:06;;;;;;;16.77;10.52;;;615.00;2432.00;;;;;;5048672;28;20048;-71
2023/05/31 09:33:39;;;;;;;21.38;11.85;;;615.20;2432.00;;;;;;5074204;28;20501;-71
2023/05/31 09:36:05;;;;;;;19.42;11.27;;;615.10;2432.00;;;;;;5075317;28;20040;-70
2023/05/31 09:38:33;;;;;;;16.92;10.80;;;615.30;2432.00;;;;;;5075554;28;20028;-70
2023/05/31 09:41:16;;;;;;;18.27;10.98;;;615.30;2432.00;;;;;;5038367;28;20032;-77
2023/05/31 09:43:43;;;;;;;15.82;10.75;;;615.20;2432.00;;;;;;5074687;28;20037;-78
2023/05/31 09:46:17;;;;;;;18.73;10.05;;;615.00;2432.00;;;;;;5075257;28;20012;-70
2023/05/31 09:49:14;;;;;;;13.70;10.52;;;640.00;2432.00;;;;;;5076031;28;20024;-71
2023/05/31 09:51:49;;;;;;;12.75;10.20;;;640.20;2432.00;;;;;;5071383;28;20031;-72
2023/05/31 09:54:17;;;;;;;15.40;10.38;;;640.00;2432.00;;;;;;5072165;28;20025;-81
2023/05/31 09:56:43;;;;;;;15.10;10.95;;;640.00;2432.00;;;;;;5075163;28;20029;-76
2023/05/31 09:59:10;;;;;;;18.30;11.23;;;615.20;2432.00;;;;;;5068051;28;20091;-80
2023/05/31 10:01:36;;;;;;;19.38;11.77;;;615.30;2432.00;;;;;;5075125;28;20482;-71
2023/05/31 10:04:03;;;;;;;27.77;12.07;;;640.00;2432.00;;;;;;5073037;28;20138;-73
2023/05/31 10:06:34;;;;;;;18.35;11.52;;;615.30;2432.00;;;;;;5067699;28;20095;-71
2023/05/31 10:09:09;;;;;;;17.40;10.88;;;640.00;2432.00;;;;;;5073171;28;20474;-71
2023/05/31 10:11:37;;;;;;;14.67;10.03;;;615.30;2432.00;;;;;;5042375;28;20037;-71
2023/05/31 10:14:08;;;;;;;15.00;9.70;;;640.20;2432.00;;;;;;5070405;28;20025;-70
2023/05/31 10:16:48;;;;;;;15.75;10.02;;;640.10;2432.00;;;;;;5074727;28;20028;-70
2023/05/31 10:19:24;;;;;;;14.13;9.63;;;640.00;2432.00;;;;;;5074766;28;20107;-71
2023/05/31 10:21:50;;;;;;;19.63;9.98;;;;;;;;;;5056632;28;20147;-73
2023/05/31 10:24:37;;;;;;;15.00;10.20;;;640.80;2432.00;;;;;;5074658;28;20489;-73
2023/05/31 10:27:14;;;;;;;14.10;10.70;;;665.90;2432.00;;;;;;5074300;28;20031;-73
2023/05/31 10:29:43;;;;;;;13.82;10.27;;;666.20;2432.00;;;;;;5073032;28;20547;-73
2023/05/31 10:32:25;;;;;;;18.58;9.50;;;666.30;2432.00;;;;;;5074372;28;20056;-71
2023/05/31 10:34:52;;;;;;;13.70;10.32;;;665.70;2432.00;;;;;;5074426;28;20020;-71
2023/05/31 10:37:19;;;;;;;17.25;10.45;;;666.10;2432.00;;;;;;5074213;28;20100;-72
2023/05/31 10:40:05;;;;;;;15.77;10.90;;;665.70;2432.00;;;;;;5073189;28;20028;-71
2023/05/31 10:42:44;;;;;;;16.48;10.35;;;666.20;2432.00;;;;;;5070122;28;20028;-70
2023/05/31 10:45:14;;;;;;;15.93;9.13;;;666.50;2432.00;;;;;;5073556;28;20101;-73
2023/05/31 10:47:53;;;;;;;15.10;9.80;;;691.30;2432.00;;;;;;5074172;28;20046;-71
2023/05/31 10:50:20;;;;;;;14.85;9.90;;;691.60;2432.00;;;;;;5070420;28;20012;-71
2023/05/31 10:53:07;;;;;;;13.07;9.10;;;691.70;2432.00;;;;;;5074423;28;20056;-71
2023/05/31 10:55:43;;;;;;;15.38;9.90;;;691.70;2432.00;;;;;;5072496;28;20028;-72
2023/05/31 10:58:38;;;;;;;18.17;9.77;;;691.70;2304.00;;;;;;5072452;28;20027;-76
2023/05/31 11:01:14;;;;;;;15.57;10.02;;;691.80;2432.00;;;;;;5061834;28;20032;-73
2023/05/31 11:03:46;;;;;;;12.48;9.40;;;691.70;2329.60;;;;;;5069921;28;20040;-71
2023/05/31 11:06:14;;;;;;;11.43;8.85;;;666.40;2432.00;;;;;;5073859;28;20406;-72
2023/05/31 11:09:12;;;;;;;11.40;8.25;;;691.20;2432.00;;;;;;5072561;28;20070;-71
2023/05/31 11:11:41;;;;;;;14.10;9.20;;;691.20;2406.40;;;;;;5070536;28;20017;-73
2023/05/31 11:14:29;;;;;;;12.18;9.65;;;666.30;2432.00;;;;;;5068109;28;20418;-76
2023/05/31 11:17:02;;;;;;;13.73;9.38;;;691.30;2432.00;;;;;;5055962;28;20401;-70
2023/05/31 11:19:32;;;;;;;15.18;9.68;;;666.50;2432.00;;;;;;5073604;28;20466;-71
2023/05/31 11:22:05;;;;;;;16.90;10.10;;;666.50;2432.00;;;;;;5069184;28;20124;-71
2023/05/31 11:24:52;;;;;;;14.82;9.18;;;691.60;2432.00;;;;;;5073304;28;20085;-71
2023/05/31 11:27:20;;;;;;;13.55;8.45;;;691.60;2329.60;;;;;;5073328;28;20111;-72
2023/05/31 11:29:48;;;;;;;13.27;9.00;;;691.60;2432.00;;;;;;5070776;28;20028;-71
2023/05/31 11:32:15;;;;;;;13.27;8.68;;;691.80;2432.00;;;;;;5073232;28;20569;-82
2023/05/31 11:34:57;;;;;;;14.57;8.88;;;692.10;2227.20;;;;;;5055346;28;20099;-77
2023/05/31 11:37:31;;;;;;;12.50;8.82;;;716.80;2099.20;;;;;;5065991;28;20044;-70
2023/05/31 11:40:20;;;;;;;14.18;8.65;;;716.80;2201.60;;;;;;5069149;28;20109;-72
2023/05/31 11:42:46;;;;;;;13.25;8.82;;;691.80;2380.80;;;;;;5065641;28;20053;-72
2023/05/31 11:45:20;;;;;;;13.80;9.55;;;691.40;2432.00;;;;;;5070679;28;20027;-71
2023/05/31 11:48:17;;;;;;;13.40;9.13;;;691.20;2432.00;;;;;;5053993;28;20121;-72
2023/05/31 11:50:43;;;;;;;13.98;9.13;;;691.30;2432.00;;;;;;5065035;28;20374;-72
2023/05/31 11:53:10;;;;;;;13.57;8.32;;;666.50;2432.00;;;;;;5072319;28;20021;-72
2023/05/31 11:55:36;;;;;;;13.80;9.48;;;666.40;2432.00;;;;;;5072702;28;20029;-76
2023/05/31 11:58:05;;;;;;;12.15;8.35;;;691.40;2432.00;;;;;;5071116;28;20146;-72
2023/05/31 12:00:31;;;;;;;11.45;7.80;;;691.80;2304.00;;;;;;5064562;28;20028;-78
2023/05/31 12:02:57;;;;;;;14.93;8.80;;;692.10;2176.00;;;;;;5073226;28;20032;-72
2023/05/31 12:05:23;;;;;;;12.27;8.48;;;716.90;2278.40;;;;;;5072962;28;20025;-72
2023/05/31 12:07:53;;;;;;;12.82;7.72;;;717.20;2124.80;;;;;;5072769;28;20024;-72